Time;durP1;ratioP1;P1;durP2;ratioP2;P2;SDS_P1;SDS_P2;PMS_P1;PMS_P2;Temp;Humidity;BMP_temperature;BMP_pressure;BME280_temperature;BME280_humidity;BME280_pressure;Samples;Min_cycle;Max_cycle;Signal;HPM_P1;HPM_P2
2021/12/07 00:00:55;;;;;;;27.60;14.50;;;23.80;50.70;;;;;;214134;1312;176883;-53
2021/12/07 00:06:02;;;;;;;27.40;15.00;;;23.90;50.70;;;;;;214356;1315;24311;-54
2021/12/07 00:11:12;;;;;;;29.10;14.60;;;23.90;50.50;;;;;;214407;1315;22645;-52
2021/12/07 00:16:18;;;;;;;26.30;14.50;;;23.90;50.20;;;;;;214460;1315;25425;-52
2021/12/07 00:21:22;;;;;;;28.00;15.20;;;24.00;50.20;;;;;;214459;1311;25335;-51
2021/12/07 00:26:29;;;;;;;26.10;14.20;;;23.90;50.00;;;;;;214486;1316;26947;-52
2021/12/07 00:31:43;;;;;;;21.10;12.00;;;24.00;49.50;;;;;;214399;1310;24989;-54
2021/12/07 00:36:48;;;;;;;22.60;13.00;;;23.90;49.40;;;;;;214477;1307;23960;-54
2021/12/07 00:41:53;;;;;;;21.80;12.30;;;24.00;49.50;;;;;;214199;1312;25403;-55
2021/12/07 00:46:57;;;;;;;21.90;12.60;;;24.00;49.10;;;;;;214257;1311;26199;-54
2021/12/07 00:52:01;;;;;;;22.20;12.40;;;24.00;49.00;;;;;;214267;1311;25418;-52
2021/12/07 00:57:06;;;;;;;24.40;13.00;;;23.90;49.20;;;;;;214343;1307;25361;-53
2021/12/07 01:02:14;;;;;;;22.00;12.00;;;24.00;48.80;;;;;;214497;1311;22660;-52
2021/12/07 01:07:55;;;;;;;21.00;12.90;;;23.90;48.90;;;;;;216174;1315;24838;-55
2021/12/07 01:29:08;;;;;;;18.60;11.50;;;24.00;48.70;;;;;;214389;1309;22656;-53
2021/12/07 01:34:43;;;;;;;21.10;12.00;;;24.00;48.40;;;;;;214652;1315;25256;-54
2021/12/07 01:50:23;;;;;;;18.00;10.60;;;24.10;48.10;;;;;;214668;1309;26639;-52
2021/12/07 02:00:57;;;;;;;16.20;10.10;;;23.60;49.00;;;;;;214416;1315;22552;-51
2021/12/07 02:06:01;;;;;;;15.90;9.90;;;23.50;49.30;;;;;;214459;1316;22706;-51
2021/12/07 02:11:05;;;;;;;18.80;11.60;;;23.30;49.70;;;;;;214538;1314;25613;-52
2021/12/07 02:16:11;;;;;;;17.70;10.50;;;23.10;50.00;;;;;;214716;1307;22638;-52
2021/12/07 02:21:19;;;;;;;18.40;10.50;;;22.90;50.40;;;;;;214558;1311;22560;-53
2021/12/07 02:26:26;;;;;;;16.00;10.00;;;22.80;50.60;;;;;;214253;1315;22713;-54
2021/12/07 02:31:31;;;;;;;18.30;11.20;;;22.80;50.60;;;;;;214330;1315;25607;-55
2021/12/07 02:36:36;;;;;;;20.80;11.80;;;22.80;50.70;;;;;;214405;1316;25332;-54
2021/12/07 02:41:41;;;;;;;16.30;10.60;;;22.70;51.00;;;;;;214474;1315;25558;-53
2021/12/07 02:46:45;;;;;;;15.30;10.30;;;22.60;50.80;;;;;;214449;1316;24486;-53
2021/12/07 02:51:49;;;;;;;18.20;10.70;;;22.60;51.00;;;;;;214290;1315;25374;-52
2021/12/07 02:56:53;;;;;;;18.60;10.70;;;22.50;51.40;;;;;;214407;1315;24099;-54
2021/12/07 03:02:02;;;;;;;19.30;11.70;;;22.40;51.50;;;;;;214556;1316;22666;-51
2021/12/07 03:07:20;;;;;;;16.90;10.50;;;22.30;51.30;;;;;;214420;1316;25200;-56
2021/12/07 03:28:40;;;;;;;14.00;9.20;;;23.20;49.70;;;;;;214381;1315;25444;-54
2021/12/07 03:33:44;;;;;;;17.00;9.80;;;23.50;48.00;;;;;;214424;1314;22599;-52
2021/12/07 03:38:48;;;;;;;13.70;9.30;;;23.60;48.10;;;;;;214551;1309;22577;-53
2021/12/07 03:43:53;;;;;;;16.00;9.70;;;23.60;48.00;;;;;;214451;1309;24299;-53
2021/12/07 03:48:58;;;;;;;12.60;9.40;;;23.60;47.90;;;;;;214326;1315;26801;-55
2021/12/07 03:54:03;;;;;;;14.30;9.40;;;23.70;48.40;;;;;;214237;1309;23149;-56
2021/12/07 03:59:07;;;;;;;14.10;9.60;;;23.70;48.20;;;;;;214483;1312;22640;-53
2021/12/07 04:04:11;;;;;;;13.60;9.20;;;23.70;48.00;;;;;;214263;1315;23058;-52
2021/12/07 04:09:16;;;;;;;14.60;9.10;;;23.70;47.70;;;;;;214354;1309;26513;-53
2021/12/07 04:14:20;;;;;;;12.90;9.10;;;23.70;47.30;;;;;;214457;1309;23395;-52
2021/12/07 04:19:24;;;;;;;13.80;9.60;;;23.70;47.50;;;;;;214389;1311;27198;-55
2021/12/07 04:24:28;;;;;;;14.80;9.20;;;23.70;47.40;;;;;;214370;1310;22587;-52
2021/12/07 04:29:44;;;;;;;14.90;8.80;;;23.60;47.50;;;;;;214577;1310;25435;-52
2021/12/07 04:34:48;;;;;;;13.90;9.20;;;23.70;47.50;;;;;;214689;1314;25585;-54
2021/12/07 04:39:52;;;;;;;14.10;9.00;;;23.70;47.50;;;;;;214379;1309;24314;-53
2021/12/07 04:44:59;;;;;;;13.70;9.30;;;23.70;47.30;;;;;;214462;1314;25370;-51
2021/12/07 05:00:35;;;;;;;13.20;9.40;;;23.90;47.10;;;;;;214282;1315;24408;-54
2021/12/07 05:05:44;;;;;;;12.70;8.80;;;23.90;46.90;;;;;;214591;1314;24487;-52
2021/12/07 05:42:37;;;;;;;13.60;9.60;;;24.00;46.80;;;;;;214297;1315;25432;-52
2021/12/07 05:47:41;;;;;;;13.00;8.60;;;24.00;46.80;;;;;;214621;1315;22746;-52
2021/12/07 05:52:45;;;;;;;13.90;9.50;;;24.00;46.70;;;;;;214732;1314;26730;-53
2021/12/07 05:57:49;;;;;;;12.70;9.10;;;24.00;46.90;;;;;;214528;1315;27986;-53
2021/12/07 06:03:00;;;;;;;13.10;9.60;;;24.00;46.50;;;;;;214516;1314;25404;-53
2021/12/07 06:08:04;;;;;;;;;;;24.00;46.80;;;;;;214383;1315;22539;-54
2021/12/07 06:13:07;;;;;;;13.70;9.00;;;24.00;46.90;;;;;;214415;1315;22571;-52
2021/12/07 06:18:14;;;;;;;12.90;8.70;;;24.00;46.80;;;;;;214517;1314;26698;-53
2021/12/07 06:23:18;;;;;;;13.30;9.10;;;24.00;46.50;;;;;;214391;1314;22567;-52
2021/12/07 06:28:23;;;;;;;14.50;9.50;;;24.10;46.60;;;;;;214500;1314;22574;-51
2021/12/07 06:33:28;;;;;;;12.60;9.50;;;24.20;46.60;;;;;;214365;1306;25570;-52
2021/12/07 06:38:34;;;;;;;13.60;9.20;;;24.20;46.30;;;;;;214341;1315;24304;-51
2021/12/07 06:43:40;;;;;;;15.90;10.40;;;24.20;46.30;;;;;;214403;1313;22555;-54
2021/12/07 06:48:43;;;;;;;11.90;8.40;;;24.20;46.20;;;;;;214529;1309;22555;-55
2021/12/07 06:53:47;;;;;;;12.60;8.60;;;24.30;46.10;;;;;;214473;1311;25318;-53
2021/12/07 06:58:51;;;;;;;12.30;9.20;;;24.20;46.20;;;;;;214493;1313;22611;-52
2021/12/07 07:03:54;;;;;;;12.70;9.00;;;24.10;46.30;;;;;;214419;1312;25329;-53
2021/12/07 07:08:58;;;;;;;12.00;8.80;;;24.10;46.50;;;;;;214682;1311;22644;-52
2021/12/07 07:14:03;;;;;;;12.90;9.00;;;24.00;46.50;;;;;;214556;1312;22647;-53
2021/12/07 07:19:07;;;;;;;12.20;9.50;;;23.80;46.70;;;;;;214480;1309;22552;-55
2021/12/07 07:24:11;;;;;;;13.60;9.80;;;23.70;47.00;;;;;;214336;1310;22564;-53
2021/12/07 07:29:14;;;;;;;13.40;9.60;;;23.50;47.30;;;;;;214634;1313;22618;-53
2021/12/07 07:34:19;;;;;;;11.70;9.10;;;23.40;47.50;;;;;;214558;1309;22637;-51
2021/12/07 07:39:22;;;;;;;13.70;10.00;;;23.30;47.60;;;;;;214547;1306;24245;-54
2021/12/07 07:44:26;;;;;;;13.20;9.40;;;23.10;48.10;;;;;;214736;1306;23972;-53
2021/12/07 07:49:30;;;;;;;14.50;9.20;;;23.10;48.50;;;;;;214487;1309;25415;-54
2021/12/07 07:54:33;;;;;;;13.80;9.30;;;23.00;49.10;;;;;;214145;1306;25614;-54
2021/12/07 07:59:39;;;;;;;14.10;9.90;;;22.90;49.00;;;;;;214151;1307;303280;-56
2021/12/07 08:05:00;;;;;;;12.70;9.40;;;22.80;49.50;;;;;;214422;1310;24420;-52
2021/12/07 08:10:09;;;;;;;14.50;10.20;;;22.70;49.70;;;;;;214569;1306;22592;-55
2021/12/07 08:15:19;;;;;;;14.40;10.50;;;22.70;49.60;;;;;;214514;1310;25374;-53
2021/12/07 08:20:30;;;;;;;15.20;10.80;;;22.60;50.40;;;;;;214391;1314;24340;-55
2021/12/07 08:25:54;;;;;;;15.00;10.20;;;22.60;50.40;;;;;;214344;1314;24243;-53
2021/12/07 08:31:11;;;;;;;16.10;10.60;;;22.50;50.60;;;;;;214621;1314;25378;-53
2021/12/07 08:36:19;;;;;;;16.90;10.70;;;22.50;51.40;;;;;;214549;1309;24245;-55
2021/12/07 08:41:32;;;;;;;16.60;10.30;;;22.40;50.80;;;;;;214634;1311;22555;-51
2021/12/07 08:46:53;;;;;;;16.80;9.70;;;22.50;50.70;;;;;;214668;1313;22634;-52
2021/12/07 08:52:20;;;;;;;17.70;10.90;;;22.90;50.40;;;;;;214481;1309;23927;-53
2021/12/07 09:03:01;;;;;;;21.60;11.20;;;23.30;49.50;;;;;;214181;1306;22574;-53
2021/12/07 09:08:05;;;;;;;19.40;10.40;;;23.50;48.90;;;;;;214676;1306;22674;-54
2021/12/07 09:13:11;;;;;;;17.70;11.30;;;23.60;48.80;;;;;;214255;1306;22622;-52
2021/12/07 09:18:15;;;;;;;17.20;11.60;;;23.60;48.90;;;;;;214447;1306;22571;-54
2021/12/07 09:23:21;;;;;;;21.30;10.00;;;23.60;49.10;;;;;;214419;1307;24294;-55
2021/12/07 09:28:26;;;;;;;21.00;10.60;;;23.70;49.10;;;;;;214365;1306;22560;-55
2021/12/07 09:33:30;;;;;;;16.80;9.90;;;23.80;49.10;;;;;;214303;1310;25550;-55
2021/12/07 09:38:37;;;;;;;18.80;11.30;;;23.90;49.40;;;;;;214009;1308;24279;-53
2021/12/07 09:43:42;;;;;;;23.90;11.90;;;23.90;49.30;;;;;;214296;1306;22577;-55
2021/12/07 09:48:53;;;;;;;19.60;10.60;;;23.90;49.90;;;;;;214290;1306;22577;-52
2021/12/07 09:53:57;;;;;;;19.90;11.90;;;24.00;48.30;;;;;;214256;1306;25335;-52
2021/12/07 09:59:05;;;;;;;24.10;11.30;;;24.00;48.40;;;;;;213989;1306;22574;-52
2021/12/07 10:04:09;;;;;;;19.90;12.50;;;24.00;48.00;;;;;;214252;1306;22764;-55
2021/12/07 10:09:13;;;;;;;17.50;11.40;;;24.00;47.80;;;;;;214053;1306;22656;-54
2021/12/07 10:14:20;;;;;;;20.00;11.90;;;24.00;47.90;;;;;;214134;1306;22589;-51
2021/12/07 10:19:31;;;;;;;21.80;12.50;;;24.10;47.70;;;;;;214421;1306;25388;-54
2021/12/07 10:24:53;;;;;;;24.40;13.40;;;24.10;47.50;;;;;;214068;1306;25420;-54
2021/12/07 10:29:59;;;;;;;18.80;12.20;;;24.10;47.40;;;;;;213892;1306;22653;-55
2021/12/07 10:35:29;;;;;;;23.50;12.70;;;24.00;47.90;;;;;;214055;1306;25546;-51
2021/12/07 10:40:58;;;;;;;19.30;12.00;;;23.80;48.60;;;;;;213936;1306;22590;-53
2021/12/07 10:46:38;;;;;;;19.90;12.70;;;23.70;48.30;;;;;;213950;1306;24338;-54
2021/12/07 10:51:57;;;;;;;16.40;11.90;;;23.60;48.60;;;;;;214272;1306;23824;-55
2021/12/07 10:57:04;;;;;;;25.00;12.70;;;23.40;48.70;;;;;;214168;1306;22617;-55
2021/12/07 11:02:17;;;;;;;19.30;12.60;;;23.30;49.00;;;;;;214507;1309;26345;-53
2021/12/07 11:07:24;;;;;;;19.10;11.70;;;23.20;49.10;;;;;;214485;1309;24223;-56
2021/12/07 11:12:35;;;;;;;20.80;11.90;;;23.10;49.30;;;;;;214698;1306;24819;-55
2021/12/07 11:17:40;;;;;;;23.80;12.20;;;23.00;49.40;;;;;;214171;1306;23804;-51
2021/12/07 11:22:57;;;;;;;17.30;12.40;;;22.90;49.50;;;;;;214191;1309;22669;-52
2021/12/07 11:33:27;;;;;;;18.00;11.50;;;22.70;49.80;;;;;;214331;1310;22577;-54
2021/12/07 11:38:31;;;;;;;17.80;11.70;;;22.70;50.10;;;;;;214143;1306;24251;-55
2021/12/07 11:43:50;;;;;;;18.80;12.40;;;22.60;50.00;;;;;;214285;1312;25328;-54
2021/12/07 11:49:19;;;;;;;16.70;11.10;;;22.50;50.20;;;;;;214591;1313;22928;-51
2021/12/07 11:54:29;;;;;;;19.20;12.50;;;22.40;50.20;;;;;;214271;1306;25355;-51
2021/12/07 11:59:32;;;;;;;20.90;12.50;;;22.30;50.30;;;;;;214472;1306;25522;-55
2021/12/07 12:04:38;;;;;;;18.50;12.00;;;22.30;50.20;;;;;;214183;1306;22552;-54
2021/12/07 12:09:51;;;;;;;21.20;12.10;;;22.20;50.40;;;;;;214416;1312;23094;-53
2021/12/07 12:15:36;;;;;;;19.40;11.70;;;22.10;50.50;;;;;;213913;1306;22632;-54
2021/12/07 12:21:10;;;;;;;20.00;12.70;;;22.30;50.40;;;;;;215904;1304;26686;-52
2021/12/07 12:26:23;;;;;;;18.30;11.80;;;22.80;49.10;;;;;;214102;1309;24297;-55
2021/12/07 12:31:51;;;;;;;18.60;11.70;;;23.20;48.10;;;;;;216851;1310;24269;-55
2021/12/07 12:37:07;;;;;;;21.10;12.10;;;23.30;47.80;;;;;;214584;1313;24329;-55
2021/12/07 12:42:26;;;;;;;16.20;11.50;;;23.50;47.40;;;;;;214496;1313;22564;-52
2021/12/07 12:47:31;;;;;;;21.10;11.70;;;23.60;47.40;;;;;;214453;1306;22585;-53
2021/12/07 12:52:48;;;;;;;21.00;11.70;;;23.60;46.90;;;;;;214510;1313;22577;-53
2021/12/07 12:57:53;;;;;;;18.60;11.00;;;23.70;46.90;;;;;;214424;1309;22565;-52
2021/12/07 13:03:09;;;;;;;15.60;11.40;;;23.70;46.60;;;;;;214231;1310;24343;-52
2021/12/07 13:08:17;;;;;;;20.10;11.30;;;23.80;46.40;;;;;;214509;1314;22631;-52
2021/12/07 13:13:32;;;;;;;19.60;11.90;;;23.90;46.20;;;;;;214574;1314;22578;-52
2021/12/07 13:18:43;;;;;;;17.50;12.20;;;23.80;46.00;;;;;;214425;1307;22556;-54
2021/12/07 13:24:08;;;;;;;20.40;11.60;;;23.80;45.90;;;;;;214528;1313;22749;-54
2021/12/07 13:29:24;;;;;;;15.90;11.70;;;23.70;46.20;;;;;;214299;1307;22646;-53
2021/12/07 13:34:35;;;;;;;21.80;12.60;;;23.70;45.90;;;;;;214437;1309;22669;-55
2021/12/07 13:39:49;;;;;;;20.70;13.50;;;23.60;43.60;;;;;;214425;1306;22558;-55
2021/12/07 13:44:58;;;;;;;19.30;12.90;;;23.50;43.30;;;;;;214295;1307;22635;-55
2021/12/07 13:50:26;;;;;;;20.70;12.60;;;23.50;43.30;;;;;;214237;1309;22570;-52
2021/12/07 13:55:36;;;;;;;20.10;14.90;;;23.30;40.80;;;;;;214304;1306;22565;-54
2021/12/07 14:00:41;;;;;;;19.00;13.30;;;23.10;39.10;;;;;;214250;1308;24323;-52
2021/12/07 14:05:46;;;;;;;19.00;13.70;;;23.30;39.10;;;;;;214223;1309;25441;-55
2021/12/07 14:10:52;;;;;;;19.40;13.40;;;23.40;39.60;;;;;;214296;1306;25615;-52
2021/12/07 14:15:56;;;;;;;19.60;12.70;;;23.50;39.80;;;;;;214346;1306;22634;-50
2021/12/07 14:21:01;;;;;;;17.70;13.10;;;23.60;40.30;;;;;;214477;1309;25584;-51
2021/12/07 14:26:10;;;;;;;18.60;12.90;;;23.70;40.30;;;;;;214386;1309;22618;-54
2021/12/07 14:31:15;;;;;;;19.20;12.70;;;23.70;40.60;;;;;;214628;1314;22579;-52
2021/12/07 14:36:22;;;;;;;16.70;12.00;;;23.70;40.90;;;;;;214544;1314;22566;-55
2021/12/07 14:41:31;;;;;;;15.60;12.60;;;23.70;41.00;;;;;;214356;1309;24300;-53
2021/12/07 14:46:36;;;;;;;17.30;12.30;;;23.70;41.20;;;;;;214569;1309;22613;-55
2021/12/07 14:51:41;;;;;;;18.00;12.80;;;23.80;41.40;;;;;;214554;1315;23173;-54
2021/12/07 14:56:46;;;;;;;18.00;12.40;;;23.80;41.40;;;;;;214554;1315;26915;-52
2021/12/07 15:01:55;;;;;;;17.40;12.20;;;23.80;41.20;;;;;;214421;1315;22635;-52
2021/12/07 15:07:03;;;;;;;18.60;12.70;;;23.80;41.30;;;;;;214498;1306;22638;-54
2021/12/07 15:12:09;;;;;;;18.50;13.10;;;23.90;42.20;;;;;;214562;1307;22571;-55
2021/12/07 15:17:13;;;;;;;19.10;13.40;;;23.90;41.20;;;;;;214639;1311;22586;-53
2021/12/07 15:22:17;;;;;;;18.90;12.40;;;23.90;40.90;;;;;;214278;1306;22860;-53
2021/12/07 15:27:26;;;;;;;16.10;11.20;;;23.90;40.80;;;;;;214014;1307;24233;-55
2021/12/07 15:32:30;;;;;;;16.20;12.30;;;23.90;40.80;;;;;;214142;1309;24274;-53
2021/12/07 15:37:34;;;;;;;15.80;11.20;;;24.00;40.50;;;;;;214384;1310;24274;-53
2021/12/07 15:42:38;;;;;;;17.60;12.50;;;24.10;40.40;;;;;;215588;1311;22591;-51
2021/12/07 15:47:46;;;;;;;19.10;13.00;;;24.10;40.20;;;;;;214206;1312;22876;-54
2021/12/07 15:53:02;;;;;;;18.50;13.80;;;24.20;39.90;;;;;;214274;1306;22565;-53
2021/12/07 15:58:24;;;;;;;18.40;14.00;;;24.10;39.90;;;;;;214255;1306;170480;-52
2021/12/07 16:03:37;;;;;;;21.30;13.70;;;24.10;40.30;;;;;;215255;1315;24393;-55
2021/12/07 16:08:43;;;;;;;19.20;13.80;;;23.90;41.10;;;;;;214605;1310;22584;-55
2021/12/07 16:13:58;;;;;;;20.20;13.70;;;23.70;42.20;;;;;;214567;1311;23205;-56
2021/12/07 16:19:04;;;;;;;20.80;13.60;;;23.50;42.80;;;;;;214461;1313;23317;-53
2021/12/07 16:24:08;;;;;;;23.60;13.50;;;23.40;43.70;;;;;;214838;1314;24245;-56
2021/12/07 16:29:29;;;;;;;20.50;13.10;;;23.20;44.10;;;;;;214569;1312;22683;-57
2021/12/07 16:34:40;;;;;;;19.70;14.00;;;23.10;44.60;;;;;;214563;1312;24292;-54
2021/12/07 16:39:52;;;;;;;19.50;13.00;;;22.90;44.80;;;;;;214582;1313;22762;-53
2021/12/07 16:44:56;;;;;;;20.70;13.60;;;22.80;45.10;;;;;;214301;1309;22707;-53
2021/12/07 16:49:59;;;;;;;20.20;13.60;;;22.70;45.70;;;;;;214429;1312;24886;-53
2021/12/07 16:55:06;;;;;;;18.70;13.50;;;22.70;45.60;;;;;;214504;1312;26305;-55
2021/12/07 17:00:17;;;;;;;19.50;13.70;;;22.60;45.30;;;;;;214609;1312;25360;-56
2021/12/07 17:05:25;;;;;;;19.70;13.60;;;22.60;46.30;;;;;;214524;1313;22583;-53
2021/12/07 17:10:29;;;;;;;20.40;13.90;;;22.50;45.80;;;;;;214293;1311;25438;-52
2021/12/07 17:15:37;;;;;;;19.70;14.20;;;22.40;46.30;;;;;;214140;1311;24309;-55
2021/12/07 17:20:44;;;;;;;20.90;13.90;;;22.30;46.20;;;;;;214447;1306;22593;-56
2021/12/07 17:25:49;;;;;;;21.80;13.00;;;22.20;46.40;;;;;;214089;1306;22590;-53
2021/12/07 17:30:53;;;;;;;22.00;14.40;;;22.20;46.50;;;;;;214438;1312;22651;-52
2021/12/07 17:35:57;;;;;;;23.50;15.10;;;22.40;46.50;;;;;;214482;1312;22575;-56
2021/12/07 17:41:05;;;;;;;19.90;14.60;;;22.80;45.10;;;;;;214309;1312;22639;-56
2021/12/07 17:46:14;;;;;;;22.80;15.80;;;23.10;44.50;;;;;;214090;1306;24245;-57
2021/12/07 17:51:31;;;;;;;21.10;15.10;;;23.30;44.10;;;;;;214421;1312;25402;-56
2021/12/07 17:56:46;;;;;;;24.00;16.20;;;23.50;44.00;;;;;;214312;1307;24448;-56
2021/12/07 18:01:57;;;;;;;20.30;14.60;;;23.60;43.70;;;;;;214596;1307;24432;-53
2021/12/07 18:07:02;;;;;;;22.60;15.30;;;23.70;43.90;;;;;;214571;1312;23146;-55
2021/12/07 18:12:08;;;;;;;20.20;15.20;;;23.70;43.90;;;;;;214585;1313;24330;-55
2021/12/07 18:17:54;;;;;;;22.80;14.80;;;23.80;44.00;;;;;;214607;1312;22627;-56
2021/12/07 18:23:16;;;;;;;20.50;14.50;;;23.80;44.10;;;;;;214276;1312;22602;-51
2021/12/07 18:28:21;;;;;;;22.20;15.90;;;23.90;44.20;;;;;;214335;1311;22631;-54
2021/12/07 18:33:38;;;;;;;19.50;14.70;;;23.90;44.20;;;;;;214199;1306;24297;-56
2021/12/07 18:38:46;;;;;;;21.00;14.20;;;23.90;44.10;;;;;;214374;1312;25338;-56
2021/12/07 18:43:56;;;;;;;22.40;14.00;;;23.50;45.60;;;;;;214587;1309;25690;-54
2021/12/07 18:49:15;;;;;;;24.90;16.10;;;23.30;46.10;;;;;;215131;1306;24254;-57
2021/12/07 18:54:30;;;;;;;21.50;14.70;;;23.30;46.20;;;;;;215180;1310;22592;-57
2021/12/07 18:59:42;;;;;;;21.00;15.10;;;23.20;45.70;;;;;;215069;1315;22580;-56
2021/12/07 19:04:53;;;;;;;20.20;14.80;;;23.10;46.30;;;;;;214585;1314;22743;-52
2021/12/07 19:09:57;;;;;;;20.70;14.70;;;23.00;46.50;;;;;;214477;1312;22744;-56
2021/12/07 19:15:11;;;;;;;24.50;16.40;;;22.90;46.50;;;;;;214521;1315;25663;-57
2021/12/07 19:20:20;;;;;;;25.10;15.40;;;22.70;46.50;;;;;;214640;1312;24584;-57
2021/12/07 19:25:44;;;;;;;22.90;15.40;;;22.70;46.90;;;;;;214588;1307;25340;-51
2021/12/07 19:30:55;;;;;;;24.50;14.80;;;22.70;46.50;;;;;;214196;1309;22739;-51
2021/12/07 19:36:14;;;;;;;25.90;15.30;;;22.70;46.30;;;;;;214338;1307;22659;-54
2021/12/07 19:41:56;;;;;;;27.50;14.70;;;22.60;45.90;;;;;;215082;1309;23097;-54
2021/12/07 19:47:47;;;;;;;26.60;14.50;;;22.40;46.40;;;;;;214375;1311;25255;-54
2021/12/07 19:53:31;;;;;;;21.40;14.90;;;22.20;46.50;;;;;;214827;1312;22577;-55
2021/12/07 19:58:47;;;;;;;24.90;14.90;;;22.10;46.70;;;;;;214770;1313;24298;-54
2021/12/07 20:04:15;;;;;;;21.30;14.10;;;22.00;46.90;;;;;;214685;1314;24279;-52
2021/12/07 20:09:46;;;;;;;21.10;14.30;;;22.00;46.90;;;;;;214749;1312;24247;-52
2021/12/07 20:15:09;;;;;;;20.10;14.90;;;21.90;46.90;;;;;;214827;1310;24333;-54
2021/12/07 20:20:16;;;;;;;37.60;14.40;;;21.90;47.00;;;;;;214738;1315;24042;-52
2021/12/07 20:25:26;;;;;;;30.40;15.40;;;21.80;48.40;;;;;;214679;1312;24222;-53
2021/12/07 20:30:55;;;;;;;28.10;15.40;;;21.80;48.80;;;;;;214689;1313;22808;-53
2021/12/07 20:36:19;;;;;;;28.50;13.90;;;22.00;48.50;;;;;;214571;1306;22587;-51
2021/12/07 20:41:24;;;;;;;27.30;14.40;;;22.50;47.50;;;;;;214763;1310;24310;-54
2021/12/07 20:46:37;;;;;;;23.20;13.00;;;22.90;46.80;;;;;;214784;1310;24274;-52
2021/12/07 20:51:44;;;;;;;24.90;13.90;;;23.10;46.40;;;;;;214718;1306;22556;-54
2021/12/07 20:56:51;;;;;;;19.00;12.90;;;23.20;46.80;;;;;;214385;1306;25495;-54
2021/12/07 21:02:01;;;;;;;20.60;13.20;;;23.40;46.80;;;;;;214356;1306;22806;-54
2021/12/07 21:07:05;;;;;;;20.60;13.50;;;23.50;46.70;;;;;;214474;1306;22640;-53
2021/12/07 21:12:17;;;;;;;20.60;13.00;;;23.60;46.00;;;;;;214667;1307;22564;-51
2021/12/07 21:17:33;;;;;;;20.70;14.70;;;23.60;45.90;;;;;;214523;1313;22587;-51
2021/12/07 21:22:41;;;;;;;22.30;14.10;;;23.70;45.60;;;;;;214481;1313;25493;-52
2021/12/07 21:28:03;;;;;;;21.60;14.20;;;23.60;45.00;;;;;;214387;1315;22809;-52
2021/12/07 21:33:16;;;;;;;20.50;14.50;;;23.50;45.30;;;;;;214563;1313;24432;-51
2021/12/07 21:38:57;;;;;;;17.60;13.40;;;23.30;45.30;;;;;;214388;1306;22998;-51
2021/12/07 21:44:09;;;;;;;19.00;13.40;;;23.00;45.70;;;;;;214523;1310;22569;-53
2021/12/07 21:49:29;;;;;;;22.10;13.70;;;23.10;45.90;;;;;;214338;1306;25899;-52
2021/12/07 21:55:01;;;;;;;23.10;14.40;;;23.20;45.60;;;;;;214589;1306;24330;-55
2021/12/07 22:00:23;;;;;;;23.90;13.10;;;23.40;45.20;;;;;;214340;1306;25677;-54
2021/12/07 22:05:43;;;;;;;20.90;12.60;;;23.60;45.50;;;;;;214548;1309;22574;-51
2021/12/07 22:10:54;;;;;;;23.60;13.80;;;23.70;45.90;;;;;;214677;1313;25564;-53
2021/12/07 22:16:10;;;;;;;23.40;13.50;;;23.70;48.40;;;;;;214387;1306;22555;-52
2021/12/07 22:21:59;;;;;;;24.50;13.70;;;23.60;47.80;;;;;;214414;1306;22630;-52
2021/12/07 22:27:17;;;;;;;21.40;14.30;;;23.60;47.80;;;;;;214542;1311;22789;-52
2021/12/07 22:32:32;;;;;;;20.00;13.60;;;23.80;49.20;;;;;;214566;1306;23096;-51
2021/12/07 22:37:44;;;;;;;25.80;14.00;;;23.90;49.10;;;;;;214421;1311;22568;-52
2021/12/07 22:42:51;;;;;;;19.60;13.50;;;23.90;49.10;;;;;;214444;1315;25452;-54
2021/12/07 22:47:59;;;;;;;19.30;12.30;;;24.00;49.10;;;;;;214381;1306;24393;-53
2021/12/07 22:53:05;;;;;;;23.30;12.90;;;24.00;49.10;;;;;;214525;1313;22599;-50
2021/12/07 22:58:16;;;;;;;18.20;12.10;;;24.00;49.40;;;;;;214429;1306;22555;-53
2021/12/07 23:03:29;;;;;;;18.70;11.90;;;23.90;49.30;;;;;;214327;1306;26817;-52
2021/12/07 23:08:37;;;;;;;18.30;12.40;;;23.90;49.50;;;;;;214392;1309;22578;-56
2021/12/07 23:13:45;;;;;;;21.20;12.40;;;23.90;48.90;;;;;;214401;1309;22670;-53
2021/12/07 23:18:49;;;;;;;18.60;12.20;;;23.90;48.70;;;;;;214506;1313;24261;-52
2021/12/07 23:23:59;;;;;;;17.80;12.60;;;24.00;48.50;;;;;;214462;1313;22706;-52
2021/12/07 23:29:05;;;;;;;20.20;12.60;;;24.10;48.30;;;;;;214461;1313;22590;-55
2021/12/07 23:34:09;;;;;;;16.50;11.50;;;24.10;47.90;;;;;;214413;1312;22597;-55
2021/12/07 23:39:13;;;;;;;17.50;10.90;;;23.90;48.00;;;;;;214379;1311;23096;-52
2021/12/07 23:44:16;;;;;;;20.60;11.40;;;23.70;48.40;;;;;;214482;1313;22651;-53
2021/12/07 23:49:28;;;;;;;18.90;10.70;;;23.50;48.70;;;;;;214474;1313;25394;-51
2021/12/07 23:54:33;;;;;;;18.10;11.10;;;23.30;49.50;;;;;;214354;1313;22561;-55
2021/12/07 23:59:47;;;;;;;15.90;11.20;;;23.10;49.30;;;;;;212349;1313;3413934;-55
